Bryant, Illinois
Current Conditions -  °F | °C
As of 11:54 AM on Friday 24 Oct 2014 (Local Time) from KPIA Reporting Station
Haze Haze  
Wind Chill: 16°   Ceiling: Unl
Heat Index: 16°   Visibility: 4mi
Dew Point: 12°   Wind: 7mph
Humidity: 75%   Direction: 240°WSW
Pressure: 30.08"   Gusts: NA
Location:  40.47°N, 90.09°W
Report Text: KPIA 241654Z 24006KT 4SM HZ CLR 16/12 A3008 RMK AO2 SLP186 T01610117
Loading
Personal Weather Stations






























Interactive Weather Map
Tropical Storm Tracking
New forecast layout! Learn more

10-Day Weather Forecast

Advertisements
Track Severe Weather on mobile